createdAt,value
2019-03-23T00:01:54.324Z,80.65
2019-03-23T00:04:02.075Z,80.50
2019-03-23T00:06:09.761Z,80.79
2019-03-23T00:08:17.633Z,81.30
2019-03-23T00:10:25.346Z,81.39
2019-03-23T00:12:33.040Z,81.65
2019-03-23T00:14:40.875Z,81.80
2019-03-23T00:16:48.455Z,82.12
2019-03-23T00:18:56.286Z,82.27
2019-03-23T00:21:04.041Z,82.35
2019-03-23T00:23:11.631Z,82.42
2019-03-23T00:25:19.317Z,82.34
2019-03-23T00:27:30.159Z,82.39
2019-03-23T00:29:37.921Z,82.42
2019-03-23T00:31:45.661Z,82.37
2019-03-23T00:33:53.567Z,82.35
2019-03-23T00:36:01.405Z,82.42
2019-03-23T00:38:09.433Z,82.37
2019-03-23T00:40:17.218Z,82.05
2019-03-23T00:42:24.986Z,82.18
2019-03-23T00:44:32.845Z,82.50
2019-03-23T00:46:40.635Z,82.52
2019-03-23T00:48:48.296Z,82.42
2019-03-23T00:50:56.167Z,82.51
2019-03-23T00:53:04.107Z,82.76
2019-03-23T00:55:11.869Z,82.82
2019-03-23T00:57:19.607Z,82.72
2019-03-23T00:59:27.468Z,83.07
2019-03-23T01:01:35.118Z,83.28
2019-03-23T01:03:42.941Z,83.80
2019-03-23T01:05:50.716Z,83.92
2019-03-23T01:07:58.382Z,83.93
2019-03-23T01:10:11.491Z,84.07
2019-03-23T01:12:19.101Z,84.25
2019-03-23T01:14:26.865Z,84.09
2019-03-23T01:16:34.647Z,83.45
2019-03-23T01:18:42.510Z,83.26
2019-03-23T01:20:50.196Z,83.03
2019-03-23T01:22:58.192Z,82.50
2019-03-23T01:25:09.009Z,82.30
2019-03-23T01:27:16.670Z,82.54
2019-03-23T01:29:25.201Z,82.58
2019-03-23T01:31:33.117Z,82.77
2019-03-23T01:33:40.944Z,82.92
2019-03-23T01:35:48.635Z,83.15
2019-03-23T01:37:56.556Z,83.01
2019-03-23T01:40:05.784Z,83.30
2019-03-23T01:42:14.373Z,83.58
2019-03-23T01:44:22.257Z,84.03
2019-03-23T01:46:29.921Z,84.23
2019-03-23T01:48:38.863Z,84.00
2019-03-23T01:50:46.630Z,83.31
2019-03-23T01:52:54.258Z,83.32
2019-03-23T01:55:01.849Z,83.17
2019-03-23T01:57:09.635Z,82.74
2019-03-23T01:59:17.231Z,83.04
2019-03-23T02:01:24.955Z,83.04
2019-03-23T02:03:32.927Z,83.41
2019-03-23T02:05:40.705Z,83.69
2019-03-23T02:07:48.361Z,84.10
2019-03-23T02:09:56.318Z,84.40
2019-03-23T02:12:04.012Z,84.60
2019-03-23T02:14:11.779Z,84.67
2019-03-23T02:16:19.667Z,84.55
2019-03-23T02:18:28.672Z,84.22
2019-03-23T02:20:36.386Z,84.13
2019-03-23T02:22:44.244Z,84.26
2019-03-23T02:24:51.999Z,84.15
2019-03-23T02:26:59.689Z,84.08
2019-03-23T02:29:07.300Z,84.09
2019-03-23T02:31:14.888Z,83.76
2019-03-23T02:33:22.566Z,83.51
2019-03-23T02:35:30.350Z,83.62
2019-03-23T02:37:38.183Z,83.79
2019-03-23T02:39:46.851Z,83.85
2019-03-23T02:41:54.471Z,83.72
2019-03-23T02:44:02.063Z,83.40
2019-03-23T02:46:10.829Z,83.61
2019-03-23T02:48:18.528Z,83.73
2019-03-23T02:50:26.273Z,83.66
2019-03-23T02:52:33.927Z,83.39
2019-03-23T02:54:41.680Z,83.19
2019-03-23T02:56:49.371Z,83.64
2019-03-23T02:58:56.970Z,83.60
2019-03-23T03:01:04.771Z,83.55
2019-03-23T03:03:12.348Z,83.42
2019-03-23T03:05:20.034Z,83.37
2019-03-23T03:07:40.639Z,83.37
2019-03-23T03:09:37.178Z,83.42
2019-03-23T03:11:44.819Z,83.34
2019-03-23T03:13:52.555Z,83.49
2019-03-23T03:16:00.327Z,83.08
2019-03-23T03:18:08.821Z,83.05
2019-03-23T03:20:16.570Z,83.00
2019-03-23T03:22:24.266Z,83.03
2019-03-23T03:24:31.951Z,82.65
2019-03-23T03:26:40.857Z,82.93
2019-03-23T03:28:48.623Z,83.21
2019-03-23T03:30:56.461Z,83.33
2019-03-23T03:33:05.136Z,82.54
2019-03-23T03:35:13.055Z,82.73
2019-03-23T03:37:20.741Z,82.80
2019-03-23T03:39:28.471Z,82.73
2019-03-23T03:41:36.489Z,82.49
2019-03-23T03:43:44.243Z,82.33
2019-03-23T03:45:53.175Z,81.15
2019-03-23T03:48:00.858Z,81.76
2019-03-23T03:50:10.059Z,82.28
2019-03-23T03:52:17.784Z,82.66
2019-03-23T03:54:25.482Z,82.59
2019-03-23T03:56:34.426Z,82.70
2019-03-23T03:58:42.158Z,82.84
2019-03-23T04:00:49.854Z,83.24
2019-03-23T04:02:57.612Z,83.29
2019-03-23T04:05:06.329Z,83.33
2019-03-23T04:07:13.928Z,84.06
2019-03-23T04:09:21.759Z,84.88
2019-03-23T04:11:29.569Z,85.02
2019-03-23T04:13:38.426Z,84.93
2019-03-23T04:15:46.105Z,84.76
2019-03-23T04:17:53.994Z,84.61
2019-03-23T04:20:01.930Z,84.35
2019-03-23T04:22:09.586Z,84.04
2019-03-23T04:24:17.545Z,83.65
2019-03-23T04:26:25.241Z,83.45
2019-03-23T04:28:32.941Z,83.34
2019-03-23T04:30:40.791Z,83.14
2019-03-23T04:32:48.401Z,83.15
2019-03-23T04:34:57.933Z,82.81
2019-03-23T04:37:05.725Z,83.16
2019-03-23T04:39:13.551Z,83.30
2019-03-23T04:41:21.419Z,82.83
2019-03-23T04:43:29.202Z,83.26
2019-03-23T04:45:36.893Z,83.14
2019-03-23T04:47:44.750Z,83.32
2019-03-23T04:49:52.462Z,83.42
2019-03-23T04:52:00.228Z,83.45
2019-03-23T04:54:08.004Z,83.51
2019-03-23T04:56:15.927Z,83.46
2019-03-23T04:58:23.537Z,83.42
2019-03-23T05:00:31.331Z,82.89
2019-03-23T05:02:39.134Z,82.66
2019-03-23T05:04:47.432Z,82.33
2019-03-23T05:06:55.130Z,82.60
2019-03-23T05:09:03.219Z,83.19
2019-03-23T05:11:10.813Z,83.82
2019-03-23T05:13:19.840Z,84.02
2019-03-23T05:15:27.564Z,84.29
2019-03-23T05:17:35.786Z,83.91
2019-03-23T05:19:43.542Z,83.96
2019-03-23T05:21:51.227Z,84.11
2019-03-23T05:23:58.915Z,83.69
2019-03-23T05:26:06.671Z,83.82
2019-03-23T05:28:14.400Z,83.94
2019-03-23T05:30:22.091Z,83.88
2019-03-23T05:32:29.751Z,83.64
2019-03-23T05:34:37.475Z,83.85
2019-03-23T05:36:45.873Z,83.91
2019-03-23T05:38:53.569Z,83.72
2019-03-23T05:41:01.194Z,83.92
2019-03-23T05:43:08.918Z,84.08
2019-03-23T05:45:16.609Z,83.79
2019-03-23T05:47:24.434Z,84.17
2019-03-23T05:49:32.123Z,84.49
2019-03-23T05:51:39.845Z,84.52
2019-03-23T05:53:47.587Z,84.83
2019-03-23T05:55:55.271Z,85.17
2019-03-23T05:58:02.962Z,85.35
2019-03-23T06:00:12.869Z,85.57
2019-03-23T06:02:20.551Z,85.66
2019-03-23T06:04:28.367Z,85.60
2019-03-23T06:06:36.196Z,86.01
2019-03-23T06:08:54.268Z,86.13
2019-03-23T06:10:53.309Z,86.17
2019-03-23T06:13:01.011Z,86.19
2019-03-23T06:15:08.945Z,85.99
2019-03-23T06:17:16.640Z,85.28
2019-03-23T06:19:24.405Z,84.72
2019-03-23T06:21:32.080Z,84.60
2019-03-23T06:23:39.689Z,83.97
2019-03-23T06:25:47.335Z,83.02
2019-03-23T06:27:56.287Z,83.53
2019-03-23T06:30:04.818Z,83.10
2019-03-23T06:32:12.600Z,82.22
2019-03-23T06:34:20.166Z,82.59
2019-03-23T06:36:27.842Z,82.54
2019-03-23T06:38:36.138Z,81.79
2019-03-23T06:40:43.881Z,80.50
2019-03-23T06:42:59.413Z,80.04
2019-03-23T06:45:00.896Z,79.87
2019-03-23T06:47:08.572Z,79.57
2019-03-23T06:49:16.249Z,78.48
2019-03-23T06:51:24.033Z,78.15
2019-03-23T06:53:31.606Z,77.71
2019-03-23T06:55:39.367Z,77.93
2019-03-23T06:57:47.059Z,77.39
2019-03-23T06:59:54.741Z,76.31
2019-03-23T07:02:02.441Z,75.36
2019-03-23T07:04:10.166Z,75.63
2019-03-23T07:06:19.135Z,74.45
2019-03-23T07:08:31.897Z,75.21
2019-03-23T07:10:36.298Z,74.86
2019-03-23T07:12:44.037Z,74.43
2019-03-23T07:14:51.708Z,73.49
2019-03-23T07:16:59.462Z,74.55
2019-03-23T07:19:07.139Z,73.77
2019-03-23T07:21:14.943Z,71.93
2019-03-23T07:23:22.830Z,71.52
2019-03-23T07:25:30.458Z,71.64
2019-03-23T07:27:38.194Z,71.19
2019-03-23T07:29:45.903Z,73.34
2019-03-23T07:31:53.627Z,72.26
2019-03-23T07:34:01.303Z,68.47
2019-03-23T07:36:09.019Z,69.44
2019-03-23T07:38:16.849Z,69.67
2019-03-23T07:40:25.478Z,70.17
2019-03-23T07:42:33.181Z,68.62
2019-03-23T07:44:40.859Z,69.49
2019-03-23T07:46:48.433Z,68.54
2019-03-23T07:48:56.129Z,68.24
2019-03-23T07:51:03.807Z,66.69
2019-03-23T07:53:11.646Z,65.56
2019-03-23T07:55:20.653Z,66.68
2019-03-23T07:57:28.456Z,61.96
2019-03-23T07:59:36.208Z,65.52
2019-03-23T08:01:43.913Z,59.82
2019-03-23T08:03:52.391Z,58.47
2019-03-23T08:06:00.051Z,57.45
2019-03-23T08:08:07.820Z,57.07
2019-03-23T08:10:30.695Z,55.52
2019-03-23T08:12:38.266Z,55.92
2019-03-23T08:14:45.998Z,56.29
2019-03-23T08:16:53.571Z,55.13
2019-03-23T08:19:01.311Z,54.72
2019-03-23T08:21:08.911Z,54.10
2019-03-23T08:23:16.646Z,54.31
2019-03-23T08:25:24.424Z,55.41
2019-03-23T08:27:32.120Z,55.92
2019-03-23T08:29:39.801Z,54.02
2019-03-23T08:31:47.559Z,55.02
2019-03-23T08:33:55.363Z,52.78
2019-03-23T08:36:03.035Z,52.96
2019-03-23T08:38:10.715Z,51.85
2019-03-23T08:40:18.493Z,51.54
2019-03-23T08:42:27.179Z,48.83
2019-03-23T08:44:34.828Z,46.83
2019-03-23T08:46:42.611Z,45.61
2019-03-23T08:48:51.338Z,46.72
2019-03-23T08:50:59.268Z,45.00
2019-03-23T08:53:08.038Z,44.55
2019-03-23T08:55:15.721Z,44.48
2019-03-23T08:57:24.341Z,46.04
2019-03-23T08:59:32.079Z,44.93
2019-03-23T09:01:39.732Z,44.94
2019-03-23T09:03:52.552Z,43.92
2019-03-23T09:05:56.822Z,44.88
2019-03-23T09:08:04.735Z,43.93
2019-03-23T09:10:12.589Z,45.32
2019-03-23T09:12:20.442Z,44.52
2019-03-23T09:14:28.205Z,42.39
2019-03-23T09:16:35.894Z,42.58
2019-03-23T09:18:44.806Z,43.20
2019-03-23T09:20:52.577Z,42.67
2019-03-23T09:23:00.214Z,43.54
2019-03-23T09:25:09.654Z,44.40
2019-03-23T09:27:17.380Z,44.48
2019-03-23T09:29:25.219Z,44.89
2019-03-23T09:31:32.931Z,45.00
2019-03-23T09:33:40.525Z,43.50
2019-03-23T09:35:48.291Z,43.69
2019-03-23T09:37:55.911Z,44.24
2019-03-23T09:40:10.858Z,44.19
2019-03-23T09:42:13.166Z,44.69
2019-03-23T09:44:21.881Z,45.15
2019-03-23T09:46:29.535Z,45.66
2019-03-23T09:48:37.201Z,44.69
2019-03-23T09:50:46.124Z,44.82
2019-03-23T09:52:53.928Z,45.43
2019-03-23T09:55:01.623Z,43.86
2019-03-23T09:57:09.410Z,45.20
2019-03-23T09:59:18.077Z,44.69
2019-03-23T10:01:25.774Z,44.35
2019-03-23T10:03:33.467Z,43.85
2019-03-23T10:05:42.345Z,44.22
2019-03-23T10:07:50.040Z,45.26
2019-03-23T10:09:57.907Z,44.62
2019-03-23T10:12:05.680Z,43.90
2019-03-23T10:14:13.401Z,43.88
2019-03-23T10:16:21.192Z,43.16
2019-03-23T10:18:29.124Z,43.82
2019-03-23T10:20:36.817Z,42.52
2019-03-23T10:22:44.607Z,44.98
2019-03-23T10:24:53.532Z,44.28
2019-03-23T10:27:01.413Z,41.84
2019-03-23T10:29:09.407Z,40.34
2019-03-23T10:31:17.076Z,40.99
2019-03-23T10:33:24.790Z,41.88
2019-03-23T10:35:32.542Z,41.52
2019-03-23T10:37:40.260Z,41.98
2019-03-23T10:39:47.938Z,41.62
2019-03-23T10:41:55.580Z,41.49
2019-03-23T10:44:03.266Z,42.26
2019-03-23T10:46:11.882Z,41.56
2019-03-23T10:48:19.766Z,40.99
2019-03-23T10:50:27.608Z,40.72
2019-03-23T10:52:36.439Z,40.24
2019-03-23T10:54:44.141Z,39.08
2019-03-23T10:56:51.908Z,38.39
2019-03-23T10:58:59.663Z,40.08
2019-03-23T11:01:07.390Z,40.36
2019-03-23T11:03:15.214Z,40.88
2019-03-23T11:05:22.971Z,40.21
2019-03-23T11:07:30.680Z,40.34
2019-03-23T11:09:38.433Z,39.03
2019-03-23T11:11:46.089Z,38.74
2019-03-23T11:13:53.806Z,38.44
2019-03-23T11:16:01.487Z,38.48
2019-03-23T11:18:09.280Z,39.04
2019-03-23T11:20:17.135Z,38.50
2019-03-23T11:22:24.819Z,37.62
2019-03-23T11:24:32.570Z,36.17
2019-03-23T11:26:40.298Z,36.57
2019-03-23T11:28:48.182Z,37.45
2019-03-23T11:30:55.938Z,38.07
2019-03-23T11:33:03.721Z,36.58
2019-03-23T11:35:11.915Z,37.52
2019-03-23T11:37:19.757Z,37.40
2019-03-23T11:39:28.906Z,38.78
2019-03-23T11:41:36.488Z,38.24
2019-03-23T11:43:45.496Z,37.31
2019-03-23T11:45:53.286Z,37.90
2019-03-23T11:48:01.880Z,37.50
2019-03-23T11:50:11.512Z,36.85
2019-03-23T11:52:19.223Z,37.57
2019-03-23T11:54:26.911Z,37.45
2019-03-23T11:56:34.837Z,36.15
2019-03-23T11:58:42.553Z,36.18
2019-03-23T12:00:50.557Z,35.99
2019-03-23T12:02:58.344Z,36.49
2019-03-23T12:05:08.493Z,36.23
2019-03-23T12:07:16.153Z,35.80
2019-03-23T12:09:24.086Z,36.69
2019-03-23T12:11:31.921Z,37.65
2019-03-23T12:13:39.714Z,36.45
2019-03-23T12:15:47.414Z,35.02
2019-03-23T12:17:55.381Z,36.06
2019-03-23T12:20:03.255Z,36.81
2019-03-23T12:22:11.159Z,36.02
2019-03-23T12:24:18.942Z,35.79
2019-03-23T12:26:26.698Z,35.82
2019-03-23T12:28:34.392Z,35.97
2019-03-23T12:30:42.174Z,35.59
2019-03-23T12:32:49.984Z,35.41
2019-03-23T12:34:57.745Z,35.87
2019-03-23T12:37:05.841Z,36.06
2019-03-23T12:39:13.510Z,35.90
2019-03-23T12:41:23.224Z,35.39
2019-03-23T12:43:30.512Z,33.97
2019-03-23T12:45:38.927Z,32.98
2019-03-23T12:47:46.755Z,34.24
2019-03-23T12:49:55.020Z,34.91
2019-03-23T12:52:02.705Z,35.21
2019-03-23T12:54:10.362Z,33.86
2019-03-23T12:56:18.094Z,32.95
2019-03-23T12:58:25.917Z,32.83
2019-03-23T13:00:33.740Z,31.50
2019-03-23T13:02:41.510Z,32.59
2019-03-23T13:04:49.170Z,32.18
2019-03-23T13:06:57.028Z,32.31
2019-03-23T13:09:06.884Z,30.78
2019-03-23T13:11:23.111Z,31.31
2019-03-23T13:13:24.130Z,32.95
2019-03-23T13:15:31.953Z,30.31
2019-03-23T13:17:39.658Z,29.75
2019-03-23T13:19:47.515Z,29.93
2019-03-23T13:21:55.322Z,30.10
2019-03-23T13:24:03.020Z,29.93
2019-03-23T13:26:10.875Z,30.17
2019-03-23T13:28:18.668Z,30.67
2019-03-23T13:30:26.406Z,30.29
2019-03-23T13:32:35.056Z,30.75
2019-03-23T13:34:42.744Z,30.58
2019-03-23T13:36:50.503Z,29.92
2019-03-23T13:38:58.200Z,30.16
2019-03-23T13:41:07.632Z,29.93
2019-03-23T13:43:15.421Z,30.10
2019-03-23T13:45:23.111Z,29.23
2019-03-23T13:47:30.889Z,29.10
2019-03-23T13:49:38.644Z,28.54
2019-03-23T13:51:46.402Z,27.89
2019-03-23T13:53:54.247Z,28.16
2019-03-23T13:56:01.833Z,28.94
2019-03-23T13:58:14.547Z,29.29
2019-03-23T14:00:22.194Z,29.59
2019-03-23T14:02:29.944Z,28.99
2019-03-23T14:04:37.724Z,29.03
2019-03-23T14:06:45.343Z,28.83
2019-03-23T14:08:53.111Z,29.03
2019-03-23T14:11:00.967Z,28.58
2019-03-23T14:13:08.991Z,28.78
2019-03-23T14:15:16.840Z,28.53
2019-03-23T14:17:24.533Z,28.19
2019-03-23T14:19:32.256Z,28.25
2019-03-23T14:21:39.930Z,29.10
2019-03-23T14:23:47.509Z,28.28
2019-03-23T14:25:55.267Z,27.66
2019-03-23T14:28:03.067Z,27.25
2019-03-23T14:30:11.886Z,27.53
2019-03-23T14:32:19.584Z,27.88
2019-03-23T14:34:27.351Z,27.52
2019-03-23T14:36:35.304Z,26.71
2019-03-23T14:38:42.963Z,26.81
2019-03-23T14:40:50.674Z,26.36
2019-03-23T14:42:58.519Z,25.91
2019-03-23T14:45:09.463Z,26.21
2019-03-23T14:47:17.093Z,25.89
2019-03-23T14:49:24.814Z,26.21
2019-03-23T14:51:33.769Z,25.96
2019-03-23T14:53:43.645Z,25.74
2019-03-23T14:55:51.328Z,25.56
2019-03-23T14:57:59.046Z,26.30
2019-03-23T15:00:09.802Z,25.99
2019-03-23T15:02:17.524Z,26.31
2019-03-23T15:04:25.259Z,26.22
2019-03-23T15:06:32.848Z,25.86
2019-03-23T15:08:40.524Z,25.72
2019-03-23T15:10:48.137Z,26.49
2019-03-23T15:12:55.957Z,26.92
2019-03-23T15:15:04.427Z,25.70
2019-03-23T15:17:12.039Z,26.23
2019-03-23T15:19:20.795Z,26.63
2019-03-23T15:21:28.817Z,26.86
2019-03-23T15:23:36.657Z,26.78
2019-03-23T15:25:44.519Z,27.33
2019-03-23T15:27:52.207Z,27.11
2019-03-23T15:30:00.001Z,26.32
2019-03-23T15:32:07.763Z,26.79
2019-03-23T15:34:15.447Z,26.77
2019-03-23T15:36:23.236Z,26.21
2019-03-23T15:38:30.972Z,26.34
2019-03-23T15:40:38.647Z,26.37
2019-03-23T15:42:46.448Z,26.21
2019-03-23T15:44:54.136Z,26.50
2019-03-23T15:47:01.821Z,26.30
2019-03-23T15:49:09.627Z,27.27
2019-03-23T15:51:17.311Z,27.11
2019-03-23T15:53:24.911Z,27.15
2019-03-23T15:55:32.876Z,27.36
2019-03-23T15:57:40.466Z,27.99
2019-03-23T15:59:48.220Z,28.27
2019-03-23T16:01:55.930Z,27.94
2019-03-23T16:04:03.757Z,28.48
2019-03-23T16:06:11.441Z,28.71
2019-03-23T16:08:19.061Z,28.53
2019-03-23T16:10:26.827Z,28.50
2019-03-23T16:12:36.718Z,28.96
2019-03-23T16:14:44.013Z,28.84
2019-03-23T16:16:51.730Z,29.49
2019-03-23T16:18:59.520Z,29.45
2019-03-23T16:21:08.301Z,29.01
2019-03-23T16:23:16.059Z,29.05
2019-03-23T16:25:23.661Z,29.14
2019-03-23T16:27:31.551Z,29.17
2019-03-23T16:29:39.480Z,29.18
2019-03-23T16:31:47.277Z,29.28
2019-03-23T16:33:55.074Z,29.28
2019-03-23T16:36:03.660Z,29.25
2019-03-23T16:38:11.608Z,29.21
2019-03-23T16:40:19.394Z,29.33
2019-03-23T16:42:27.060Z,29.30
2019-03-23T16:44:34.648Z,29.29
2019-03-23T16:46:42.485Z,29.46
2019-03-23T16:48:50.070Z,29.85
2019-03-23T16:50:57.804Z,30.14
2019-03-23T16:53:05.613Z,30.44
2019-03-23T16:55:13.614Z,30.02
2019-03-23T16:57:21.507Z,29.86
2019-03-23T16:59:29.328Z,29.97
2019-03-23T17:01:37.102Z,30.42
2019-03-23T17:03:44.778Z,30.63
2019-03-23T17:05:52.400Z,30.73
2019-03-23T17:08:00.171Z,30.72
2019-03-23T17:10:09.802Z,31.24
2019-03-23T17:12:17.516Z,31.93
2019-03-23T17:14:25.296Z,32.48
2019-03-23T17:16:32.992Z,32.69
2019-03-23T17:18:40.723Z,32.68
2019-03-23T17:20:48.337Z,32.95
2019-03-23T17:22:56.047Z,33.19
2019-03-23T17:25:05.908Z,33.74
2019-03-23T17:27:13.518Z,34.46
2019-03-23T17:29:21.224Z,34.81
2019-03-23T17:31:29.228Z,35.79
2019-03-23T17:33:37.008Z,35.93
2019-03-23T17:35:44.785Z,36.45
2019-03-23T17:37:52.500Z,37.72
2019-03-23T17:40:00.375Z,37.91
2019-03-23T17:42:08.154Z,38.37
2019-03-23T17:44:15.907Z,39.37
2019-03-23T17:46:23.614Z,40.28
2019-03-23T17:48:31.409Z,40.04
2019-03-23T17:50:39.207Z,40.52
2019-03-23T17:52:46.909Z,40.63
2019-03-23T17:54:55.678Z,40.81
2019-03-23T17:57:03.415Z,41.07
2019-03-23T17:59:11.267Z,41.63
2019-03-23T18:01:19.595Z,41.79
2019-03-23T18:03:27.779Z,42.41
2019-03-23T18:05:35.580Z,42.58
2019-03-23T18:07:43.253Z,42.75
2019-03-23T18:09:51.412Z,43.24
2019-03-23T18:11:59.256Z,43.47
2019-03-23T18:14:07.158Z,43.93
2019-03-23T18:16:14.780Z,44.55
2019-03-23T18:18:22.475Z,45.25
2019-03-23T18:20:30.256Z,45.85
2019-03-23T18:22:38.053Z,46.34
2019-03-23T18:24:45.756Z,46.35
2019-03-23T18:26:53.529Z,46.50
2019-03-23T18:29:02.425Z,46.76
2019-03-23T18:31:10.023Z,47.75
2019-03-23T18:33:17.864Z,48.21
2019-03-23T18:35:25.621Z,48.35
2019-03-23T18:37:33.328Z,48.76
2019-03-23T18:39:41.021Z,48.84
2019-03-23T18:41:48.893Z,49.33
2019-03-23T18:43:56.557Z,49.58
2019-03-23T18:46:04.681Z,49.89
2019-03-23T18:48:12.375Z,50.17
2019-03-23T18:50:20.069Z,50.38
2019-03-23T18:52:27.930Z,50.75
2019-03-23T18:54:35.654Z,51.40
2019-03-23T18:56:44.480Z,51.02
2019-03-23T18:58:52.330Z,52.29
2019-03-23T19:01:00.099Z,51.42
2019-03-23T19:03:08.089Z,51.20
2019-03-23T19:05:15.682Z,51.32
2019-03-23T19:07:23.366Z,51.65
2019-03-23T19:09:32.099Z,51.75
2019-03-23T19:11:39.815Z,51.97
2019-03-23T19:13:47.531Z,52.26
2019-03-23T19:15:55.214Z,52.37
2019-03-23T19:18:02.977Z,52.69
2019-03-23T19:20:10.903Z,52.80
2019-03-23T19:22:18.594Z,52.92
2019-03-23T19:24:26.430Z,52.99
2019-03-23T19:26:34.217Z,53.11
2019-03-23T19:28:41.920Z,53.50
2019-03-23T19:30:50.683Z,54.09
2019-03-23T19:32:58.773Z,54.13
2019-03-23T19:35:08.117Z,54.16
2019-03-23T19:37:15.842Z,54.52
2019-03-23T19:39:25.067Z,54.48
2019-03-23T19:41:32.823Z,54.48
2019-03-23T19:43:48.224Z,54.48
2019-03-23T19:45:49.723Z,54.59
2019-03-23T19:47:57.336Z,54.55
2019-03-23T19:50:07.333Z,54.74
2019-03-23T19:52:15.031Z,54.84
2019-03-23T19:54:22.754Z,55.21
2019-03-23T19:56:30.487Z,55.34
2019-03-23T19:58:38.253Z,55.42
2019-03-23T20:00:46.221Z,55.54
2019-03-23T20:02:54.882Z,55.53
2019-03-23T20:05:02.822Z,55.60
2019-03-23T20:07:10.852Z,56.01
2019-03-23T20:09:18.553Z,56.11
2019-03-23T20:11:26.477Z,56.37
2019-03-23T20:13:35.715Z,56.75
2019-03-23T20:15:43.574Z,56.72
2019-03-23T20:17:51.530Z,56.71
2019-03-23T20:19:59.386Z,57.01
2019-03-23T20:22:08.047Z,57.42
2019-03-23T20:24:16.498Z,57.55
2019-03-23T20:26:24.346Z,57.69
2019-03-23T20:28:31.946Z,57.80
2019-03-23T20:30:39.881Z,57.85
2019-03-23T20:32:47.666Z,57.97
2019-03-23T20:34:56.562Z,57.96
2019-03-23T20:37:04.257Z,57.99
2019-03-23T20:39:12.150Z,57.96
2019-03-23T20:41:19.856Z,58.03
2019-03-23T20:43:27.665Z,58.11
2019-03-23T20:45:35.353Z,58.22
2019-03-23T20:47:43.290Z,58.41
2019-03-23T20:49:50.991Z,58.48
2019-03-23T20:51:58.843Z,58.51
2019-03-23T20:54:07.499Z,58.53
2019-03-23T20:56:15.270Z,58.55
2019-03-23T20:58:23.022Z,58.72
2019-03-23T21:00:30.829Z,58.78
2019-03-23T21:02:38.618Z,58.86
2019-03-23T21:04:48.428Z,58.96
2019-03-23T21:06:56.208Z,59.02
2019-03-23T21:09:05.563Z,59.08
2019-03-23T21:11:13.268Z,59.13
2019-03-23T21:13:21.019Z,59.20
2019-03-23T21:15:28.609Z,59.23
2019-03-23T21:17:36.330Z,59.44
2019-03-23T21:19:44.154Z,59.47
2019-03-23T21:21:51.806Z,59.55
2019-03-23T21:23:59.524Z,59.59
2019-03-23T21:26:07.302Z,59.68
2019-03-23T21:28:15.053Z,59.72
2019-03-23T21:30:23.564Z,59.93
2019-03-23T21:32:31.325Z,60.01
2019-03-23T21:34:39.188Z,60.08
2019-03-23T21:36:47.978Z,60.12
2019-03-23T21:38:55.574Z,60.16
2019-03-23T21:41:03.187Z,60.72
2019-03-23T21:43:10.808Z,60.72
2019-03-23T21:45:18.837Z,60.87
2019-03-23T21:47:26.601Z,60.86
2019-03-23T21:49:34.320Z,60.91
2019-03-23T21:51:42.154Z,60.94
2019-03-23T21:53:49.756Z,60.98
2019-03-23T21:55:57.529Z,60.97
2019-03-23T21:58:05.257Z,60.96
2019-03-23T22:00:16.290Z,60.94
2019-03-23T22:02:23.927Z,60.89
2019-03-23T22:04:31.623Z,60.89
2019-03-23T22:06:40.108Z,60.84
2019-03-23T22:08:48.000Z,61.02
2019-03-23T22:10:55.784Z,61.45
2019-03-23T22:13:03.476Z,61.52
2019-03-23T22:15:11.782Z,62.42
2019-03-23T22:17:19.377Z,62.49
2019-03-23T22:19:27.068Z,62.58
2019-03-23T22:21:34.804Z,62.52
2019-03-23T22:23:42.485Z,62.84
2019-03-23T22:25:50.076Z,62.63
2019-03-23T22:27:58.348Z,62.80
2019-03-23T22:30:13.380Z,63.01
2019-03-23T22:32:20.969Z,63.16
2019-03-23T22:34:29.102Z,62.95
2019-03-23T22:36:36.799Z,63.17
2019-03-23T22:38:44.487Z,63.16
2019-03-23T22:40:52.449Z,63.37
2019-03-23T22:43:00.042Z,63.63
2019-03-23T22:45:11.483Z,63.66
2019-03-23T22:47:19.679Z,63.97
2019-03-23T22:49:27.384Z,64.59
2019-03-23T22:51:36.121Z,64.52
2019-03-23T22:53:43.948Z,64.89
2019-03-23T22:55:51.766Z,65.40
2019-03-23T22:57:59.466Z,65.61
2019-03-23T23:00:21.243Z,65.45
2019-03-23T23:02:30.718Z,65.45
2019-03-23T23:04:39.343Z,65.78
2019-03-23T23:06:47.848Z,65.69
2019-03-23T23:08:55.686Z,65.77
2019-03-23T23:11:03.760Z,65.78
2019-03-23T23:13:11.800Z,65.79
2019-03-23T23:15:26.039Z,65.59
2019-03-23T23:17:33.725Z,65.44
2019-03-23T23:19:41.473Z,65.28
2019-03-23T23:21:50.132Z,65.13
2019-03-23T23:23:57.841Z,65.08
2019-03-23T23:26:05.762Z,64.94
2019-03-23T23:28:13.922Z,64.85
2019-03-23T23:30:21.580Z,65.11
2019-03-23T23:32:29.299Z,64.97
2019-03-23T23:34:37.077Z,65.02
2019-03-23T23:36:44.772Z,65.07
2019-03-23T23:38:52.732Z,65.22
2019-03-23T23:41:00.566Z,65.18
2019-03-23T23:43:08.300Z,65.43
2019-03-23T23:45:16.247Z,65.19
2019-03-23T23:47:23.947Z,65.44
2019-03-23T23:49:31.641Z,66.60
2019-03-23T23:51:49.574Z,66.96
2019-03-23T23:53:48.655Z,68.31
2019-03-23T23:55:56.514Z,67.10
2019-03-23T23:58:04.419Z,67.73
